Time;durP1;ratioP1;P1;durP2;ratioP2;P2;SDS_P1;SDS_P2;PMS_P1;PMS_P2;Temp;Humidity;BMP_temperature;BMP_pressure;BME280_temperature;BME280_humidity;BME280_pressure;Samples;Min_cycle;Max_cycle;Signal;HPM_P1;HPM_P2
2021/12/23 00:00:55;;;;;;;45.20;25.92;;;;;;;3.79;100.00;98444.31;4942590;28;20085;-85
2021/12/23 00:03:20;;;;;;;50.28;27.02;;;;;;;3.87;100.00;98422.72;4944072;28;20473;-85
2021/12/23 00:05:46;;;;;;;51.42;26.15;;;;;;;4.00;100.00;98430.78;4976907;28;20108;-85
2021/12/23 00:08:12;;;;;;;47.83;26.15;;;;;;;4.03;100.00;98431.41;4959300;28;20026;-85
2021/12/23 00:10:38;;;;;;;47.13;26.40;;;;;;;4.02;100.00;98411.63;4976502;28;20169;-85
2021/12/23 00:13:04;;;;;;;49.83;28.13;;;;;;;4.03;100.00;98423.63;4946099;28;20540;-86
2021/12/23 00:15:39;;;;;;;49.53;26.13;;;;;;;4.05;100.00;98412.09;4958343;28;20126;-86
2021/12/23 00:18:29;;;;;;;45.92;25.08;;;;;;;4.13;100.00;98425.06;4958631;28;20035;-85
2021/12/23 00:23:43;;;;;;;51.28;27.38;;;;;;;4.07;100.00;98415.34;4921394;28;20053;-85
2021/12/23 00:26:09;;;;;;;50.70;27.05;;;;;;;4.08;100.00;98398.78;4942365;28;20031;-85
2021/12/23 00:28:36;;;;;;;48.92;26.83;;;;;;;4.24;100.00;98410.09;4959115;28;20389;-84
2021/12/23 00:31:02;;;;;;;49.53;26.63;;;;;;;4.09;100.00;98397.78;4974570;28;20050;-87
2021/12/23 00:33:29;;;;;;;50.20;28.30;;;;;;;4.20;100.00;98404.41;4943240;28;20073;-85
2021/12/23 00:35:56;;;;;;;55.15;29.42;;;;;;;4.27;100.00;98410.56;4946403;28;20447;-86
2021/12/23 00:38:34;;;;;;;49.85;28.58;;;;;;;4.17;100.00;98388.38;4961006;28;20066;-88
2021/12/23 00:41:02;;;;;;;50.55;27.35;;;;;;;4.28;100.00;98388.81;4942357;28;20050;-88
2021/12/23 00:43:30;;;;;;;51.40;27.60;;;;;;;4.25;100.00;98396.13;4961443;28;20031;-88
2021/12/23 00:45:56;;;;;;;50.67;28.77;;;;;;;4.23;100.00;98382.50;4944233;28;20573;-87
2021/12/23 00:48:23;;;;;;;54.35;29.15;;;;;;;4.18;100.00;98364.81;4962762;28;20022;-87
2021/12/23 00:50:49;;;;;;;66.07;31.40;;;;;;;4.37;100.00;98383.56;4943949;28;20043;-88
2021/12/23 00:53:20;;;;;;;56.13;28.88;;;;;;;4.43;100.00;98393.28;4943374;28;20045;-86
2021/12/23 00:55:54;;;;;;;53.67;29.80;;;;;;;4.39;100.00;98384.19;4959421;28;20039;-85
2021/12/23 00:58:21;;;;;;;60.35;30.73;;;;;;;4.24;100.00;98356.34;4956133;28;20046;-85
2021/12/23 01:00:47;;;;;;;57.35;29.05;;;;;;;4.29;100.00;98372.22;4940830;28;20038;-87
2021/12/23 01:03:14;;;;;;;55.05;28.92;;;;;;;4.19;100.00;98357.84;4943308;28;20058;-88
2021/12/23 01:05:40;;;;;;;58.22;30.17;;;;;;;4.16;100.00;98345.19;4946494;28;20084;-88
2021/12/23 01:08:06;;;;;;;56.05;29.67;;;;;;;4.19;100.00;98344.84;4948903;28;20436;-88
2021/12/23 01:10:32;;;;;;;56.95;31.42;;;;;;;4.21;100.00;98348.88;4983753;28;20048;-85
2021/12/23 01:13:02;;;;;;;49.38;29.40;;;;;;;4.42;100.00;98376.88;4959343;28;20101;-87
2021/12/23 01:18:37;;;;;;;57.05;30.50;;;;;;;4.34;100.00;98342.31;4975724;28;20030;-87
2021/12/23 01:21:03;;;;;;;56.95;31.00;;;;;;;4.13;100.00;98338.53;4955438;28;20046;-86
2021/12/23 01:23:31;;;;;;;52.33;28.88;;;;;;;4.32;100.00;98365.88;4941913;28;20397;-85
2021/12/23 01:25:56;;;;;;;52.30;29.08;;;;;;;4.17;100.00;98336.41;4959664;28;20058;-86
2021/12/23 01:28:25;;;;;;;52.70;30.45;;;;;;;4.12;100.00;98340.31;4983849;28;20026;-88
2021/12/23 01:30:52;;;;;;;52.13;29.08;;;;;;;4.19;100.00;98365.63;4943174;28;20043;-86
2021/12/23 01:33:18;;;;;;;55.92;29.58;;;;;;;4.12;100.00;98349.91;4959477;28;20037;-87
2021/12/23 01:35:45;;;;;;;52.22;28.70;;;;;;;4.14;100.00;98338.38;4939884;28;20458;-87
2021/12/23 01:38:11;;;;;;;58.88;31.10;;;;;;;4.27;100.00;98337.81;4942565;28;20057;-86
2021/12/23 01:40:37;;;;;;;57.83;31.65;;;;;;;4.21;100.00;98332.50;4943383;28;20038;-85
2021/12/23 01:43:04;;;;;;;56.42;30.02;;;;;;;4.31;100.00;98327.88;4945846;28;20125;-88
2021/12/23 01:45:33;;;;;;;56.63;31.50;;;;;;;4.39;100.00;98327.84;4977143;28;20030;-86
2021/12/23 01:47:59;;;;;;;56.85;30.85;;;;;;;4.24;100.00;98321.75;4981552;28;20006;-87
2021/12/23 01:50:27;;;;;;;57.67;32.33;;;;;;;4.37;100.00;98332.41;4952711;28;20031;-85
2021/12/23 01:53:02;;;;;;;57.88;31.08;;;;;;;4.31;100.00;98316.69;4964761;28;20043;-85
2021/12/23 01:55:28;;;;;;;51.40;30.50;;;;;;;4.32;100.00;98328.69;4940860;28;20100;-85
2021/12/23 01:57:55;;;;;;;55.75;32.40;;;;;;;4.49;100.00;98324.19;4960048;28;20031;-85
2021/12/23 02:00:27;;;;;;;57.97;32.03;;;;;;;4.48;100.00;98318.22;4958502;28;20066;-87
2021/12/23 02:02:53;;;;;;;60.20;31.17;;;;;;;4.54;100.00;98311.50;4958237;28;20023;-86
2021/12/23 02:05:20;;;;;;;57.22;32.35;;;;;;;4.65;100.00;98324.09;4943793;28;20079;-86
2021/12/23 02:07:46;;;;;;;63.70;34.05;;;;;;;4.43;100.00;98303.13;4949678;28;20041;-85
2021/12/23 02:10:12;;;;;;;57.55;32.97;;;;;;;4.53;100.00;98312.50;4956721;28;20117;-85
2021/12/23 02:12:44;;;;;;;65.38;34.35;;;;;;;4.61;100.00;98317.63;4956138;28;20392;-84
2021/12/23 02:15:11;;;;;;;63.42;33.75;;;;;;;4.56;100.00;98304.34;4941308;28;20041;-82
2021/12/23 02:17:37;;;;;;;73.82;36.67;;;;;;;4.63;100.00;98297.47;4959592;28;20038;-86
2021/12/23 02:20:09;;;;;;;65.90;36.10;;;;;;;4.55;100.00;98284.53;4959255;28;20083;-84
2021/12/23 02:22:35;;;;;;;64.40;34.15;;;;;;;4.50;100.00;98295.44;4981153;28;20508;-85
2021/12/23 02:25:04;;;;;;;66.97;36.78;;;;;;;4.37;100.00;98296.03;4958674;28;20034;-85
2021/12/23 02:27:30;;;;;;;68.55;36.80;;;;;;;4.40;100.00;98287.88;4981696;28;20034;-86
2021/12/23 02:29:57;;;;;;;71.85;37.13;;;;;;;4.30;100.00;98276.91;4959903;28;20440;-84
2021/12/23 02:32:22;;;;;;;69.82;36.22;;;;;;;4.33;100.00;98281.78;4941490;28;20042;-84
2021/12/23 02:34:48;;;;;;;75.30;37.45;;;;;;;4.27;100.00;98279.84;4941238;28;20043;-86
2021/12/23 02:37:15;;;;;;;70.43;36.63;;;;;;;4.30;100.00;98269.09;4940391;28;20043;-84
2021/12/23 02:39:42;;;;;;;70.05;36.40;;;;;;;4.35;100.00;98281.59;4940732;28;20393;-85
2021/12/23 02:42:08;;;;;;;80.15;40.63;;;;;;;4.33;100.00;98286.97;4959462;28;20038;-85
2021/12/23 02:44:35;;;;;;;74.00;38.50;;;;;;;4.23;100.00;98260.41;4941801;28;20039;-86
2021/12/23 02:47:00;;;;;;;78.55;38.80;;;;;;;4.36;100.00;98273.63;4942692;28;20117;-86
2021/12/23 02:49:26;;;;;;;74.97;39.15;;;;;;;4.29;100.00;98278.69;4965392;28;20126;-87
2021/12/23 02:51:52;;;;;;;74.25;39.60;;;;;;;4.27;100.00;98274.66;4972103;28;20478;-86
2021/12/23 02:54:17;;;;;;;80.38;39.67;;;;;;;4.34;100.00;98278.19;4945599;28;20027;-85
2021/12/23 02:56:43;;;;;;;82.70;41.47;;;;;;;4.28;100.00;98265.88;4957234;28;20027;-85
2021/12/23 02:59:09;;;;;;;85.35;41.15;;;;;;;4.24;100.00;98264.59;4940743;28;20034;-86
2021/12/23 03:01:35;;;;;;;85.05;40.65;;;;;;;4.27;100.00;98254.69;4939584;28;20038;-86
2021/12/23 03:04:01;;;;;;;84.38;41.33;;;;;;;4.39;100.00;98268.09;4941538;28;20038;-85
2021/12/23 03:06:26;;;;;;;82.38;42.42;;;;;;;4.29;100.00;98257.91;4942282;28;20090;-86
2021/12/23 03:08:55;;;;;;;85.78;41.83;;;;;;;4.28;100.00;98256.31;4981732;28;20082;-85
2021/12/23 03:11:23;;;;;;;81.45;38.95;;;;;;;4.35;100.00;98256.44;4942487;28;20108;-85
2021/12/23 03:13:50;;;;;;;79.63;40.15;;;;;;;4.42;100.00;98252.13;4958281;28;20022;-86
2021/12/23 03:16:20;;;;;;;80.85;40.17;;;;;;;4.46;100.00;98260.41;4958494;28;20054;-86
2021/12/23 03:18:46;;;;;;;84.85;40.97;;;;;;;4.37;100.00;98244.06;4941259;28;20053;-87
2021/12/23 03:21:11;;;;;;;82.55;40.75;;;;;;;4.51;100.00;98254.66;4956194;28;20065;-86
2021/12/23 03:23:37;;;;;;;81.15;40.70;;;;;;;4.48;100.00;98255.84;4954320;28;20038;-86
2021/12/23 03:26:03;;;;;;;83.63;41.03;;;;;;;4.46;100.00;98244.00;4940534;28;20050;-84
2021/12/23 03:28:29;;;;;;;84.90;40.92;;;;;;;4.40;100.00;98235.91;4959189;28;20445;-85
2021/12/23 03:30:55;;;;;;;82.82;40.45;;;;;;;4.40;100.00;98228.13;4959272;28;20035;-87
2021/12/23 03:33:21;;;;;;;82.40;41.50;;;;;;;4.42;100.00;98231.34;4944064;28;20030;-85
2021/12/23 03:35:47;;;;;;;81.55;40.65;;;;;;;4.55;100.00;98245.56;4945528;28;20043;-87
2021/12/23 03:38:13;;;;;;;87.22;41.67;;;;;;;4.53;100.00;98242.31;4962757;28;20026;-85
2021/12/23 03:40:39;;;;;;;81.50;42.33;;;;;;;4.55;100.00;98233.34;4943937;28;20039;-83
2021/12/23 03:43:05;;;;;;;81.53;40.80;;;;;;;4.56;100.00;98237.56;4945857;28;20042;-87
2021/12/23 03:45:31;;;;;;;78.70;38.72;;;;;;;4.60;100.00;98224.22;4960064;28;20039;-85
2021/12/23 03:47:57;;;;;;;85.43;42.10;;;;;;;4.49;100.00;98215.06;4963514;28;20109;-85
2021/12/23 03:50:24;;;;;;;85.90;41.53;;;;;;;4.50;100.00;98237.47;4960103;28;20030;-88
2021/12/23 03:52:51;;;;;;;77.35;38.45;;;;;;;4.65;100.00;98230.50;4946698;28;20519;-85
2021/12/23 03:55:18;;;;;;;81.63;40.30;;;;;;;4.61;100.00;98218.84;4960597;28;20031;-87
2021/12/23 03:57:44;;;;;;;78.43;39.63;;;;;;;4.70;100.00;98233.38;4942854;28;20050;-87
2021/12/23 04:00:13;;;;;;;83.00;40.92;;;;;;;4.70;100.00;98219.59;4957887;28;20035;-86
2021/12/23 04:02:39;;;;;;;85.45;40.30;;;;;;;4.67;100.00;98218.13;4960011;28;20117;-87
2021/12/23 04:05:08;;;;;;;79.07;40.28;;;;;;;4.85;100.00;98227.41;4959858;28;20489;-86
2021/12/23 04:07:35;;;;;;;79.45;39.83;;;;;;;4.85;100.00;98215.22;4961873;28;20050;-86
2021/12/23 04:10:01;;;;;;;76.30;39.22;;;;;;;4.80;100.00;98201.94;4944913;28;20027;-86
2021/12/23 04:12:27;;;;;;;77.60;41.38;;;;;;;4.85;100.00;98206.59;4944311;28;20034;-86
2021/12/23 04:14:53;;;;;;;85.00;41.97;;;;;;;4.80;100.00;98208.94;4959261;28;20085;-86
2021/12/23 04:17:19;;;;;;;82.07;40.75;;;;;;;4.82;100.00;98210.38;4943454;28;20089;-87
2021/12/23 04:19:46;;;;;;;83.82;41.58;;;;;;;4.77;100.00;98193.69;4950141;28;20030;-85
2021/12/23 04:22:13;;;;;;;90.65;41.60;;;;;;;4.87;100.00;98194.22;4959152;28;20069;-86
2021/12/23 04:24:38;;;;;;;80.53;42.03;;;;;;;5.43;100.00;98198.16;4961289;28;20030;-86
2021/12/23 04:27:08;;;;;;;80.72;40.80;;;;;;;5.38;100.00;98161.47;4961188;28;20045;-87
2021/12/23 04:29:33;;;;;;;76.43;39.58;;;;;;;5.60;100.00;98182.34;4960091;28;20054;-84
2021/12/23 04:31:59;;;;;;;77.40;37.15;;;;;;;5.66;100.00;98173.78;4960936;28;20057;-87
2021/12/23 04:34:26;;;;;;;81.88;41.13;;;;;;;5.72;100.00;98178.28;4943000;28;20035;-85
2021/12/23 04:36:52;;;;;;;78.72;40.10;;;;;;;5.86;100.00;98171.41;4960827;28;20034;-86
2021/12/23 04:39:17;;;;;;;71.30;36.80;;;;;;;5.86;100.00;98159.16;4962233;28;20089;-84
2021/12/23 04:41:43;;;;;;;75.50;39.03;;;;;;;5.86;100.00;98172.19;4960466;28;20019;-84
2021/12/23 04:44:09;;;;;;;78.03;39.63;;;;;;;5.81;100.00;98139.91;4976753;28;20026;-86
2021/12/23 04:46:34;;;;;;;74.65;36.65;;;;;;;5.88;100.00;98145.16;4959491;28;20058;-85
2021/12/23 04:49:00;;;;;;;76.45;37.45;;;;;;;5.98;100.00;98151.66;4943070;28;20019;-85
2021/12/23 04:51:26;;;;;;;72.32;38.50;;;;;;;6.02;100.00;98149.53;4958820;28;20027;-86
2021/12/23 04:53:52;;;;;;;71.80;37.03;;;;;;;5.99;100.00;98147.28;4962173;28;20038;-85
2021/12/23 04:56:18;;;;;;;73.55;37.83;;;;;;;6.08;100.00;98156.59;4958988;28;20035;-86
2021/12/23 04:58:45;;;;;;;72.13;36.83;;;;;;;6.06;100.00;98150.75;4952247;28;20038;-84
2021/12/23 05:01:27;;;;;;;71.13;36.25;;;;;;;6.05;100.00;98145.75;4959232;28;20039;-83
2021/12/23 05:03:53;;;;;;;68.30;36.15;;;;;;;5.96;100.00;98137.22;4943413;28;20031;-85
2021/12/23 05:06:19;;;;;;;78.90;39.42;;;;;;;5.96;100.00;98134.63;4946855;28;20556;-86
2021/12/23 05:08:45;;;;;;;87.32;41.42;;;;;;;5.98;100.00;98149.06;4942418;28;20054;-85
2021/12/23 05:11:11;;;;;;;78.60;40.20;;;;;;;5.94;100.00;98134.00;4943792;28;20492;-86
2021/12/23 05:13:36;;;;;;;83.82;42.08;;;;;;;5.75;100.00;98128.44;4959840;28;20042;-84
2021/12/23 05:16:02;;;;;;;89.05;42.95;;;;;;;5.66;100.00;98137.34;4961399;28;20481;-84
2021/12/23 05:18:28;;;;;;;81.85;41.92;;;;;;;5.63;100.00;98138.53;4992236;28;20035;-85
2021/12/23 05:20:54;;;;;;;85.47;40.47;;;;;;;5.60;100.00;98132.88;4961530;28;20038;-83
2021/12/23 05:23:19;;;;;;;83.68;41.13;;;;;;;5.60;100.00;98136.28;4966790;28;20037;-85
2021/12/23 05:25:45;;;;;;;85.15;42.63;;;;;;;5.63;100.00;98135.09;4951490;28;20061;-84
2021/12/23 05:28:11;;;;;;;84.47;41.47;;;;;;;5.63;100.00;98127.28;4963510;28;20085;-85
2021/12/23 05:30:40;;;;;;;94.03;42.65;;;;;;;5.58;100.00;98126.06;4961159;28;20065;-88
2021/12/23 05:33:06;;;;;;;86.85;41.25;;;;;;;5.58;100.00;98100.03;4959650;28;20035;-86
2021/12/23 05:35:32;;;;;;;81.78;39.90;;;;;;;5.60;100.00;98106.84;4961286;28;20026;-86
2021/12/23 05:37:57;;;;;;;87.13;39.67;;;;;;;5.69;100.00;98111.75;4943741;28;20034;-86
2021/12/23 05:40:25;;;;;;;80.75;38.70;;;;;;;5.79;100.00;98121.03;4987871;28;20027;-85
2021/12/23 05:42:52;;;;;;;77.03;38.75;;;;;;;5.70;100.00;98102.16;4991082;28;20027;-87
2021/12/23 05:45:18;;;;;;;83.15;39.42;;;;;;;5.89;100.00;98118.09;4957940;28;20026;-87
2021/12/23 05:47:44;;;;;;;89.60;41.40;;;;;;;5.92;100.00;98120.38;4975233;28;20133;-85
2021/12/23 05:50:12;;;;;;;81.28;39.38;;;;;;;5.91;100.00;98114.34;4973134;28;20030;-87
2021/12/23 05:52:38;;;;;;;83.15;41.33;;;;;;;5.86;100.00;98117.50;4975074;28;20037;-87
2021/12/23 05:55:06;;;;;;;78.65;39.22;;;;;;;6.00;100.00;98117.63;4941864;28;20481;-87
2021/12/23 05:57:32;;;;;;;81.60;38.75;;;;;;;6.07;100.00;98120.31;4957450;28;20031;-85
2021/12/23 05:59:57;;;;;;;78.82;40.20;;;;;;;6.07;100.00;98096.88;4944736;28;20044;-86
2021/12/23 06:02:23;;;;;;;84.60;41.42;;;;;;;6.05;100.00;98091.03;4959264;28;20031;-85
2021/12/23 06:04:49;;;;;;;81.97;40.10;;;;;;;6.20;100.00;98106.59;4986487;28;20034;-84
2021/12/23 06:07:14;;;;;;;85.28;40.85;;;;;;;6.21;100.00;98113.41;4962685;28;20037;-84
2021/12/23 06:09:40;;;;;;;80.22;40.85;;;;;;;6.18;100.00;98113.78;4958635;28;20139;-84
2021/12/23 06:12:06;;;;;;;74.45;38.97;;;;;;;6.13;100.00;98101.31;4955810;28;20062;-84
2021/12/23 06:14:32;;;;;;;78.78;39.10;;;;;;;6.14;100.00;98106.34;4958664;28;20026;-87
2021/12/23 06:16:58;;;;;;;77.97;39.53;;;;;;;6.10;100.00;98102.50;4942004;28;20445;-86
2021/12/23 06:19:23;;;;;;;80.22;39.78;;;;;;;6.09;100.00;98097.47;4957892;28;20046;-87
2021/12/23 06:21:49;;;;;;;80.25;39.10;;;;;;;6.21;100.00;98103.81;4956331;28;20411;-87
2021/12/23 06:24:15;;;;;;;75.28;37.40;;;;;;;6.03;100.00;98078.19;4941420;28;20035;-85
2021/12/23 06:26:41;;;;;;;79.32;40.30;;;;;;;6.14;100.00;98108.13;4983754;28;20174;-85
2021/12/23 06:29:06;;;;;;;84.57;39.83;;;;;;;6.03;100.00;98096.44;4957799;28;20035;-87
2021/12/23 06:31:32;;;;;;;77.05;38.88;;;;;;;6.19;100.00;98108.41;4941685;28;20034;-87
2021/12/23 06:33:58;;;;;;;80.38;40.58;;;;;;;6.16;100.00;98110.56;4958848;28;20030;-86
2021/12/23 06:36:24;;;;;;;78.45;39.05;;;;;;;6.19;100.00;98102.38;4985617;28;20449;-87
2021/12/23 06:38:49;;;;;;;72.65;38.17;;;;;;;6.16;100.00;98066.28;4958579;28;20029;-85
2021/12/23 06:41:17;;;;;;;77.97;38.67;;;;;;;6.01;100.00;98095.81;4941616;28;20374;-87
2021/12/23 06:43:43;;;;;;;71.97;37.13;;;;;;;5.77;100.00;98082.16;4957975;28;20031;-86
2021/12/23 06:46:09;;;;;;;84.47;41.13;;;;;;;5.68;100.00;98091.09;4957298;28;20035;-86
2021/12/23 06:48:35;;;;;;;76.45;39.58;;;;;;;5.48;100.00;98052.66;4940886;28;20046;-86
2021/12/23 06:51:01;;;;;;;79.47;38.95;;;;;;;5.69;100.00;98079.69;4991654;28;20030;-87
2021/12/23 06:53:27;;;;;;;80.45;41.05;;;;;;;5.58;100.00;98075.78;4941337;28;20113;-89
2021/12/23 06:55:55;;;;;;;78.38;37.90;;;;;;;5.46;100.00;98070.25;4941036;28;20026;-86
2021/12/23 06:58:25;;;;;;;76.28;38.17;;;;;;;5.43;100.00;98057.63;4939641;28;20568;-86
2021/12/23 07:00:52;;;;;;;83.07;40.03;;;;;;;5.39;100.00;98072.78;4940423;28;20034;-86
2021/12/23 07:03:17;;;;;;;87.20;40.65;;;;;;;5.33;100.00;98080.56;4961696;28;20026;-88
2021/12/23 07:05:43;;;;;;;82.70;40.28;;;;;;;5.35;100.00;98081.16;4944385;28;20533;-88
2021/12/23 07:08:24;;;;;;;81.97;41.28;;;;;;;5.48;100.00;98089.09;4958857;28;20082;-85
2021/12/23 07:10:50;;;;;;;77.80;38.65;;;;;;;5.51;100.00;98083.53;4960956;28;20031;-88
2021/12/23 07:13:16;;;;;;;83.38;39.70;;;;;;;5.51;100.00;98083.53;4988220;28;20030;-90
2021/12/23 07:15:41;;;;;;;83.80;40.00;;;;;;;5.39;100.00;98059.78;4945293;28;20093;-86
2021/12/23 07:18:07;;;;;;;79.68;38.53;;;;;;;5.39;100.00;98048.56;4959608;28;20027;-82
2021/12/23 07:20:33;;;;;;;84.18;39.92;;;;;;;5.51;100.00;98067.91;4982407;28;20031;-82
2021/12/23 07:23:00;;;;;;;84.82;39.70;;;;;;;5.35;100.00;98037.72;4943292;28;20030;-81
2021/12/23 07:25:26;;;;;;;88.00;40.35;;;;;;;5.38;100.00;98041.75;4975568;28;20042;-80
2021/12/23 07:27:52;;;;;;;81.60;39.42;;;;;;;5.43;100.00;98057.63;4943893;28;20062;-84
2021/12/23 07:30:20;;;;;;;88.35;40.90;;;;;;;5.46;100.00;98056.44;4982443;28;20034;-85
2021/12/23 07:32:47;;;;;;;89.20;39.33;;;;;;;5.49;100.00;98054.25;4959531;28;20508;-84
2021/12/23 07:35:13;;;;;;;79.80;38.33;;;;;;;5.42;100.00;98043.81;4943090;28;20066;-83
2021/12/23 07:37:38;;;;;;;81.50;36.78;;;;;;;5.43;100.00;98023.78;4982379;28;20035;-84
2021/12/23 07:40:05;;;;;;;73.38;36.47;;;;;;;5.63;100.00;98055.22;4945055;28;20030;-86
2021/12/23 07:42:32;;;;;;;79.18;37.55;;;;;;;5.61;100.00;98049.38;4981819;28;20527;-87
2021/12/23 07:45:05;;;;;;;81.78;37.70;;;;;;;5.57;100.00;98048.13;4943402;28;20046;-86
2021/12/23 07:47:32;;;;;;;78.88;39.10;;;;;;;5.60;100.00;98052.16;4944086;28;20033;-84
2021/12/23 07:49:58;;;;;;;76.18;37.70;;;;;;;5.71;100.00;98067.31;4943538;28;20511;-88
2021/12/23 07:52:24;;;;;;;79.38;35.53;;;;;;;5.63;100.00;98050.00;4943477;28;20726;-85
2021/12/23 07:54:51;;;;;;;75.35;37.25;;;;;;;5.66;100.00;98043.59;4958003;28;20061;-87
2021/12/23 07:57:17;;;;;;;75.80;36.63;;;;;;;5.63;100.00;98059.59;4958949;28;20045;-86
2021/12/23 07:59:43;;;;;;;82.50;38.97;;;;;;;5.55;100.00;98040.53;4959549;28;20035;-87
2021/12/23 08:02:09;;;;;;;75.03;36.90;;;;;;;5.43;100.00;98023.78;4943702;28;20065;-87
2021/12/23 08:04:35;;;;;;;81.35;37.97;;;;;;;5.47;100.00;98035.44;4943350;28;20030;-86
2021/12/23 08:07:03;;;;;;;81.28;38.45;;;;;;;5.42;100.00;98048.19;4984247;28;20065;-87
2021/12/23 08:09:29;;;;;;;82.15;37.58;;;;;;;5.47;100.00;98050.25;4944833;28;20038;-85
2021/12/23 08:11:55;;;;;;;89.95;40.38;;;;;;;5.34;100.00;98040.53;4959470;28;20105;-88
2021/12/23 08:14:21;;;;;;;90.82;42.38;;;;;;;5.44;100.00;98046.22;4959223;28;20501;-87
2021/12/23 08:16:47;;;;;;;93.40;41.17;;;;;;;5.38;100.00;98033.94;4957359;28;20501;-85
2021/12/23 08:19:13;;;;;;;86.10;41.28;;;;;;;5.37;100.00;98040.94;4985511;28;20397;-87
2021/12/23 08:21:39;;;;;;;93.10;41.67;;;;;;;5.29;100.00;98034.06;4943560;28;20046;-88
2021/12/23 08:24:05;;;;;;;100.00;46.45;;;;;;;5.35;100.00;98036.94;4959068;28;20033;-87
2021/12/23 08:26:39;;;;;;;95.93;41.92;;;;;;;5.31;100.00;98022.69;4960498;28;20031;-88
2021/12/23 08:29:06;;;;;;;94.63;40.75;;;;;;;5.52;100.00;98051.31;4961081;28;20026;-84
2021/12/23 08:31:32;;;;;;;109.68;44.83;;;;;;;5.61;100.00;98053.78;4943977;28;20035;-86
2021/12/23 08:33:57;;;;;;;99.75;45.00;;;;;;;5.59;100.00;98059.16;4960434;28;20031;-89
2021/12/23 08:36:23;;;;;;;100.78;44.50;;;;;;;5.58;100.00;98053.16;4988921;28;20081;-87
2021/12/23 08:38:49;;;;;;;96.85;43.72;;;;;;;5.68;100.00;98052.84;4942939;28;20031;-86
2021/12/23 08:41:16;;;;;;;101.28;42.60;;;;;;;5.71;100.00;98062.09;4943740;28;20079;-87
2021/12/23 08:43:41;;;;;;;90.40;40.05;;;;;;;5.65;100.00;98048.03;4967562;28;20093;-87
2021/12/23 08:46:07;;;;;;;82.65;37.47;;;;;;;5.64;100.00;98019.56;4942951;28;20437;-87
2021/12/23 08:48:32;;;;;;;90.80;40.88;;;;;;;5.74;100.00;98034.84;4942840;28;20034;-86
2021/12/23 08:50:58;;;;;;;83.30;37.70;;;;;;;5.69;100.00;98007.59;4960202;28;20030;-86
2021/12/23 08:53:24;;;;;;;87.38;40.53;;;;;;;5.93;100.00;98039.41;4960037;28;20038;-87
2021/12/23 08:55:50;;;;;;;88.07;38.72;;;;;;;5.92;100.00;98034.41;4952919;28;20038;-87
2021/12/23 08:58:15;;;;;;;81.88;38.05;;;;;;;5.96;100.00;98022.63;4979809;28;20031;-87
2021/12/23 09:00:41;;;;;;;88.63;38.08;;;;;;;6.08;100.00;98041.94;4969065;28;20031;-85
2021/12/23 09:03:09;;;;;;;82.43;38.13;;;;;;;5.97;100.00;98024.22;4969596;28;20019;-88
2021/12/23 09:05:36;;;;;;;79.38;37.85;;;;;;;6.00;100.00;98018.63;4948358;28;20035;-86
2021/12/23 09:08:05;;;;;;;83.97;39.65;;;;;;;5.92;100.00;98016.97;4959525;28;20026;-86
2021/12/23 09:10:31;;;;;;;85.55;38.38;;;;;;;6.02;100.00;98029.69;4944409;28;20046;-88
2021/12/23 09:12:57;;;;;;;84.60;38.70;;;;;;;5.89;100.00;98008.72;4961627;28;20054;-86
2021/12/23 09:15:23;;;;;;;81.93;40.53;;;;;;;5.99;100.00;98007.41;4961851;28;20440;-87
2021/12/23 09:17:49;;;;;;;85.97;40.58;;;;;;;6.17;100.00;98029.59;4942906;28;20035;-86
2021/12/23 09:20:19;;;;;;;85.05;40.15;;;;;;;6.25;100.00;98026.03;4962153;28;20397;-86
2021/12/23 09:22:46;;;;;;;79.85;38.80;;;;;;;6.07;100.00;98005.69;4962557;28;20488;-86
2021/12/23 09:25:24;;;;;;;83.72;39.85;;;;;;;6.23;100.00;98015.00;4957643;28;20433;-89
2021/12/23 09:28:00;;;;;;;87.18;40.20;;;;;;;6.37;100.00;98010.66;4940950;28;20034;-89
2021/12/23 09:33:11;;;;;;;77.65;39.05;;;;;;;6.37;100.00;97982.81;4980959;28;20030;-87
2021/12/23 09:35:39;;;;;;;82.95;39.83;;;;;;;6.22;100.00;97980.31;4960704;28;20034;-88
2021/12/23 09:38:07;;;;;;;86.10;38.88;;;;;;;6.41;100.00;97983.22;4943618;28;20027;-88
2021/12/23 09:40:38;;;;;;;88.70;38.65;;;;;;;6.36;100.00;97969.94;4984615;28;20502;-86
2021/12/23 09:43:07;;;;;;;77.00;38.15;;;;;;;6.47;100.00;97972.00;4942978;28;20473;-86
2021/12/23 09:45:34;;;;;;;85.47;37.92;;;;;;;6.54;100.00;97982.47;4957020;28;20038;-86
2021/12/23 09:48:02;;;;;;;71.75;36.45;;;;;;;6.66;100.00;97993.16;4940851;28;20023;-86
2021/12/23 09:50:31;;;;;;;69.25;34.58;;;;;;;6.53;100.00;97973.03;4958278;28;20026;-87
2021/12/23 09:53:00;;;;;;;72.72;34.38;;;;;;;6.60;100.00;97986.13;4958337;28;20096;-89
2021/12/23 09:55:26;;;;;;;74.45;36.97;;;;;;;6.67;100.00;97992.16;4957552;28;20038;-86
2021/12/23 09:57:54;;;;;;;75.57;37.55;;;;;;;6.61;100.00;97992.94;4940902;28;20038;-88
2021/12/23 10:00:22;;;;;;;71.85;35.35;;;;;;;6.70;100.00;97992.56;4941478;28;20393;-88
2021/12/23 10:02:49;;;;;;;67.50;33.35;;;;;;;6.59;100.00;97971.47;4974335;28;20496;-89
2021/12/23 10:05:19;;;;;;;62.78;32.22;;;;;;;6.74;100.00;97979.13;4957147;28;20035;-87
2021/12/23 10:07:46;;;;;;;66.60;33.17;;;;;;;6.80;100.00;97999.22;4941491;28;20122;-87
2021/12/23 10:39:45;;;;;;;68.22;33.60;;;;;;;7.21;100.00;97987.09;4963772;28;20050;-87
2021/12/23 10:42:21;;;;;;;71.63;35.60;;;;;;;7.11;100.00;97974.41;4980229;28;20034;-87
2021/12/23 10:44:55;;;;;;;67.32;34.47;;;;;;;7.15;100.00;97984.25;4962618;28;20458;-86
2021/12/23 10:47:32;;;;;;;69.53;34.00;;;;;;;7.15;100.00;97992.06;4947838;28;20033;-87
2021/12/23 10:50:41;;;;;;;65.47;33.80;;;;;;;7.08;100.00;97977.44;4946188;28;20041;-86
2021/12/23 10:53:13;;;;;;;69.13;33.53;;;;;;;7.09;100.00;97974.59;4963457;28;20023;-86
2021/12/23 10:58:23;;;;;;;70.57;32.88;;;;;;;7.10;100.00;97975.41;4964141;28;20027;-88
2021/12/23 11:01:01;;;;;;;70.45;34.97;;;;;;;7.00;100.00;97949.72;4947690;28;20125;-87
2021/12/23 11:03:39;;;;;;;65.47;32.53;;;;;;;7.03;100.00;97970.19;4942736;28;20030;-88
2021/12/23 11:06:19;;;;;;;59.42;31.27;;;;;;;6.95;100.00;97942.47;4987028;28;20029;-86
2021/12/23 11:40:13;;;;;;;40.65;21.02;;;;;;;7.26;100.00;97922.81;4980902;28;20081;-85
2021/12/23 11:42:26;;;;;;;36.22;19.95;;;;;;;7.24;100.00;97905.78;4953210;28;20505;-86
2021/12/23 11:44:52;;;;;;;35.85;18.90;;;;;;;7.18;100.00;97909.97;4944921;28;20026;-85
2021/12/23 11:47:17;;;;;;;27.23;15.05;;;;;;;7.40;100.00;97901.94;4959164;28;20474;-87
2021/12/23 11:49:46;;;;;;;23.88;14.63;;;;;;;7.43;100.00;97906.75;4944686;28;20034;-85
2021/12/23 11:52:13;;;;;;;27.13;14.65;;;;;;;7.37;100.00;97876.25;4961134;28;20038;-86
2021/12/23 11:54:45;;;;;;;28.40;15.80;;;;;;;7.39;100.00;97885.50;4944724;28;20031;-85
2021/12/23 11:57:14;;;;;;;31.15;16.40;;;;;;;7.38;100.00;97872.63;4960194;28;20046;-87
2021/12/23 11:59:43;;;;;;;33.17;17.73;;;;;;;7.48;100.00;97873.03;4958036;28;20097;-84
2021/12/23 12:02:20;;;;;;;36.03;18.90;;;;;;;7.44;100.00;97871.81;4989973;28;20030;-85
2021/12/23 12:04:48;;;;;;;35.45;19.95;;;;;;;7.62;100.00;97888.66;4962586;28;20100;-85
2021/12/23 12:07:16;;;;;;;37.42;20.40;;;;;;;7.70;100.00;97885.84;4947027;28;20046;-86
2021/12/23 12:09:53;;;;;;;33.58;19.73;;;;;;;7.68;100.00;97887.88;4958435;28;20119;-87
2021/12/23 12:12:19;;;;;;;33.13;18.77;;;;;;;7.64;100.00;97882.22;4958901;28;20041;-87
2021/12/23 12:14:46;;;;;;;30.67;16.77;;;;;;;7.78;100.00;97897.88;4960374;28;20042;-86
2021/12/23 12:17:25;;;;;;;31.02;17.05;;;;;;;7.71;100.00;97892.66;4947308;28;20090;-86
2021/12/23 12:20:00;;;;;;;28.05;15.77;;;;;;;7.81;100.00;97882.59;4944471;28;20035;-86
2021/12/23 12:22:47;;;;;;;29.67;18.13;;;;;;;7.83;100.00;97891.03;4961536;28;20158;-84
2021/12/23 12:25:38;;;;;;;40.67;20.27;;;;;;;7.73;100.00;97890.66;4960768;28;20096;-87
2021/12/23 12:28:03;;;;;;;40.22;20.42;;;;;;;7.77;100.00;97889.22;4943240;28;20046;-85
2021/12/23 12:30:47;;;;;;;43.72;22.10;;;;;;;7.60;100.00;97880.22;4946142;28;20437;-87